createdAt,value
2019-04-27T06:48:59.359Z,371.25
2019-04-27T06:49:58.804Z,410.63
2019-04-27T06:51:05.041Z,461.25
2019-04-27T06:51:58.696Z,506.25
2019-04-27T06:52:59.062Z,534.38
2019-04-27T06:53:59.470Z,534.38
2019-04-27T06:54:58.137Z,517.50
2019-04-27T06:56:05.934Z,483.75
2019-04-27T06:56:59.206Z,450.00
2019-04-27T06:57:58.803Z,421.88
2019-04-27T06:58:59.746Z,399.38
2019-04-27T06:59:59.188Z,388.13
2019-04-27T07:00:59.515Z,376.88
2019-04-27T07:02:00.526Z,371.25
2019-04-27T07:02:59.562Z,365.63
2019-04-27T07:03:59.666Z,343.13
2019-04-27T07:04:59.215Z,320.63
2019-04-27T07:05:58.846Z,309.38
2019-04-27T07:06:59.449Z,320.63
2019-04-27T07:07:59.109Z,337.50
2019-04-27T07:08:59.602Z,354.38
2019-04-27T07:09:59.064Z,371.25
2019-04-27T07:10:58.845Z,393.75
2019-04-27T07:11:59.285Z,438.75
2019-04-27T07:12:59.496Z,472.50
2019-04-27T07:13:59.369Z,495.00
2019-04-27T07:14:59.198Z,511.88
2019-04-27T07:15:59.573Z,511.88
2019-04-27T07:16:59.094Z,506.25
2019-04-27T07:17:58.622Z,495.00
2019-04-27T07:18:59.227Z,489.38
2019-04-27T07:19:59.370Z,483.75
2019-04-27T07:20:58.687Z,478.13
2019-04-27T07:21:59.040Z,472.50
2019-04-27T07:22:59.378Z,478.13
2019-04-27T07:23:59.452Z,489.38
2019-04-27T07:24:59.046Z,506.25
2019-04-27T07:25:57.530Z,534.38
2019-04-27T07:26:59.364Z,568.13
2019-04-27T07:27:59.029Z,590.63
2019-04-27T07:28:59.407Z,607.50
2019-04-27T07:29:59.550Z,630.00
2019-04-27T07:30:58.628Z,652.50
2019-04-27T07:31:59.496Z,680.63
2019-04-27T07:32:58.874Z,703.13
2019-04-27T07:33:57.369Z,703.13
2019-04-27T07:34:58.587Z,697.50
2019-04-27T07:35:58.956Z,675.00
2019-04-27T07:36:57.329Z,641.25
2019-04-27T07:37:58.843Z,596.25
2019-04-27T07:38:57.279Z,551.25
2019-04-27T07:39:59.024Z,523.13
2019-04-27T07:40:58.683Z,483.75
2019-04-27T07:41:58.558Z,466.88
2019-04-27T07:42:57.207Z,433.13
2019-04-27T07:43:58.588Z,399.38
2019-04-27T07:44:57.173Z,343.13
2019-04-27T08:31:48.539Z,348.75
2019-04-27T08:32:46.844Z,337.50
2019-04-27T08:33:48.544Z,309.38
2019-04-27T08:34:46.821Z,303.75
2019-04-27T08:35:46.775Z,360.00
2019-04-27T08:36:46.757Z,433.13
2019-04-27T08:37:46.737Z,506.25
2019-04-27T08:38:46.714Z,540.00
2019-04-27T08:39:46.694Z,562.50
2019-04-27T08:40:46.690Z,579.38
2019-04-27T08:41:46.656Z,613.13
2019-04-27T08:42:46.637Z,613.13
2019-04-27T08:43:46.619Z,630.00
2019-04-27T08:44:46.599Z,635.63
2019-04-27T08:45:46.609Z,618.75
2019-04-27T08:46:46.560Z,585.00
2019-04-27T08:47:46.542Z,545.63
2019-04-27T08:48:46.524Z,517.50
2019-04-27T08:49:46.508Z,511.88
2019-04-27T08:50:46.502Z,517.50
2019-04-27T08:51:56.213Z,523.13
2019-04-27T08:52:46.452Z,528.75
2019-04-27T08:53:46.434Z,540.00
2019-04-27T08:54:46.413Z,545.63
2019-04-27T08:55:46.435Z,540.00
2019-04-27T08:56:46.378Z,540.00
2019-04-27T08:57:46.362Z,534.38
2019-04-27T08:58:46.344Z,528.75
2019-04-27T08:59:46.325Z,511.88
2019-04-27T09:00:46.307Z,500.63
2019-04-27T09:01:46.321Z,489.38
2019-04-27T09:02:47.363Z,483.75
2019-04-27T09:03:46.256Z,500.63
2019-04-27T09:04:46.237Z,528.75
2019-04-27T09:05:46.221Z,517.50
2019-04-27T09:06:46.222Z,483.75
2019-04-27T09:07:46.184Z,495.00
2019-04-27T09:08:46.167Z,500.63
2019-04-27T09:09:46.150Z,517.50
2019-04-27T09:10:46.129Z,523.13
2019-04-27T09:11:46.132Z,489.38
2019-04-27T09:22:59.605Z,382.50
2019-04-27T09:23:59.573Z,326.25
2019-04-27T09:24:59.578Z,348.75
2019-04-27T09:25:59.630Z,410.63
2019-04-27T09:26:59.664Z,438.75
2019-04-27T09:27:59.796Z,421.88
2019-04-27T09:28:59.611Z,410.63
2019-04-27T09:29:59.455Z,405.00
2019-04-27T09:30:59.465Z,433.13
2019-04-27T09:36:58.150Z,511.88
2019-04-27T09:37:58.109Z,461.25
2019-04-27T09:38:58.104Z,410.63
2019-04-27T09:39:58.072Z,354.38
2019-04-27T09:40:58.219Z,303.75
2019-04-27T09:52:35.825Z,472.50
2019-04-27T09:53:36.336Z,534.38
2019-04-27T09:54:36.133Z,562.50
2019-04-27T09:55:36.700Z,517.50
2019-04-27T09:56:36.265Z,478.13
2019-04-27T09:57:36.366Z,478.13
2019-04-27T09:58:34.477Z,489.38
2019-04-27T09:59:34.461Z,506.25
2019-04-27T10:00:36.336Z,495.00
2019-04-27T10:01:36.092Z,472.50
2019-04-27T10:02:34.402Z,495.00
2019-04-27T10:03:36.070Z,500.63
2019-04-27T10:04:35.602Z,466.88
2019-04-27T10:11:44.931Z,511.88
2019-04-27T10:12:46.535Z,562.50
2019-04-27T10:13:46.433Z,495.00
2019-04-27T10:14:45.410Z,427.50
2019-04-27T10:15:45.985Z,365.63
2019-04-27T11:01:10.246Z,348.75
2019-04-27T11:02:10.205Z,320.63
2019-04-27T11:03:10.182Z,275.63
2019-04-27T11:04:10.160Z,258.75
2019-04-27T11:05:10.225Z,258.75
2019-04-27T11:06:10.118Z,270.00
2019-04-27T11:07:10.094Z,298.13
2019-04-27T11:08:10.072Z,315.00
2019-04-27T11:09:10.054Z,337.50
2019-04-27T11:10:10.032Z,343.13
2019-04-27T11:17:09.801Z,556.88
2019-04-27T11:18:09.769Z,607.50
2019-04-27T11:19:09.746Z,658.13
2019-04-27T11:20:09.756Z,697.50
2019-04-27T11:21:09.699Z,731.25
2019-04-27T11:22:09.676Z,742.50
2019-04-27T11:23:12.296Z,736.88
2019-04-27T11:24:09.639Z,686.25
2019-04-27T11:25:09.613Z,646.88
2019-04-27T11:26:09.608Z,596.25
2019-04-27T11:27:09.574Z,534.38
2019-04-27T11:28:09.554Z,517.50
2019-04-27T11:29:09.534Z,545.63
2019-04-27T11:30:09.513Z,545.63
2019-04-27T11:31:09.506Z,573.75
2019-04-27T11:32:09.481Z,585.00
2019-04-27T11:33:09.454Z,579.38
2019-04-27T11:34:09.442Z,568.13
2019-04-27T11:35:09.412Z,540.00
2019-04-27T11:36:09.407Z,517.50
2019-04-27T11:37:09.373Z,495.00
2019-04-27T11:38:09.355Z,483.75
2019-04-27T11:39:09.340Z,478.13
2019-04-27T11:40:09.317Z,466.88
2019-04-27T11:54:37.974Z,365.63
2019-04-27T11:55:37.944Z,399.38
2019-04-27T11:56:37.916Z,343.13
2019-04-27T11:57:37.912Z,286.88
2019-04-27T11:58:37.874Z,286.88
2019-04-27T11:59:37.856Z,281.25
2019-04-27T12:05:42.739Z,585.00
2019-04-27T12:06:42.704Z,652.50
2019-04-27T12:07:42.681Z,680.63
2019-04-27T12:08:42.677Z,697.50
2019-04-27T12:09:42.639Z,742.50
2019-04-27T12:10:42.618Z,798.75
2019-04-27T12:11:42.595Z,798.75
2019-04-27T12:12:42.574Z,765.00
2019-04-27T12:13:42.575Z,742.50
2019-04-27T12:14:42.537Z,742.50
2019-04-27T12:15:42.517Z,759.38
2019-04-27T12:16:42.496Z,781.88
2019-04-27T12:17:42.476Z,804.38
2019-04-27T12:18:42.479Z,826.88
2019-04-27T12:19:42.435Z,798.75
2019-04-27T12:20:42.415Z,753.75
2019-04-27T12:21:42.397Z,720.00
2019-04-27T12:22:42.376Z,691.88
2019-04-27T12:23:42.405Z,658.13
2019-04-27T12:24:42.360Z,613.13
2019-04-27T12:25:42.417Z,607.50
2019-04-27T12:26:42.313Z,607.50
2019-04-27T12:27:42.280Z,601.88
2019-04-27T12:28:42.264Z,517.50
2019-04-27T12:29:42.350Z,506.25
2019-04-27T12:30:42.220Z,540.00
2019-04-27T12:31:44.832Z,506.25
2019-04-27T12:32:42.184Z,472.50
2019-04-27T12:33:42.183Z,461.25
2019-04-27T12:41:41.783Z,680.63
2019-04-27T12:42:41.743Z,776.25
2019-04-27T12:43:41.728Z,787.50
2019-04-27T12:44:42.468Z,697.50
2019-04-27T12:45:43.581Z,646.88
2019-04-27T12:46:41.664Z,607.50
2019-04-27T12:47:41.642Z,596.25
2019-04-27T12:48:41.622Z,579.38
2019-04-27T12:49:41.602Z,562.50
2019-04-27T12:50:41.599Z,534.38
2019-04-27T12:51:41.563Z,517.50
2019-04-27T12:52:41.547Z,540.00
2019-04-27T12:53:50.683Z,618.75
2019-04-27T12:54:41.506Z,686.25
2019-04-27T12:55:41.501Z,770.63
2019-04-27T12:56:41.481Z,815.63
2019-04-27T12:57:41.450Z,798.75
2019-04-27T12:58:41.428Z,770.63
2019-04-27T12:59:44.082Z,708.75
2019-04-27T13:00:41.419Z,675.00
2019-04-27T13:01:41.371Z,691.88
2019-04-27T13:02:41.390Z,753.75
2019-04-27T13:03:41.333Z,916.88
2019-04-27T13:04:41.315Z,1147.50
2019-04-27T13:05:41.310Z,1473.75
2019-04-27T13:06:41.281Z,1794.38
2019-04-27T13:07:41.315Z,1918.13
2019-04-27T13:08:41.240Z,1946.25
2019-04-27T13:09:41.226Z,2002.50
2019-04-27T13:10:41.221Z,1760.63
2019-04-27T13:11:41.184Z,2216.25
2019-04-27T13:12:41.166Z,1451.25
2019-04-27T13:13:41.151Z,1456.88
2019-04-27T13:14:41.162Z,1395.00
2019-04-27T13:15:41.175Z,1524.38
2019-04-27T13:16:41.115Z,2176.88
2019-04-27T13:17:41.079Z,4336.88
2019-04-27T13:18:41.062Z,4246.88
2019-04-27T13:19:41.051Z,3065.63
2019-04-27T13:20:41.034Z,1552.50
2019-04-27T13:21:41.024Z,1057.50
2019-04-27T13:22:40.994Z,810.00
2019-04-27T13:23:40.977Z,787.50
2019-04-27T13:24:40.962Z,810.00
2019-04-27T13:25:40.945Z,883.13
2019-04-27T13:26:40.949Z,984.38
2019-04-27T13:27:40.912Z,1057.50
2019-04-27T13:28:40.897Z,1085.63
2019-04-27T13:29:40.878Z,1642.50
2019-04-27T13:30:40.861Z,1445.63
2019-04-27T13:31:40.845Z,1501.88
2019-04-27T13:32:40.843Z,1175.63
2019-04-27T13:33:40.811Z,1085.63
2019-04-27T13:34:40.794Z,1119.38
2019-04-27T13:35:40.779Z,1530.00
2019-04-27T13:36:40.765Z,3538.13
2019-04-27T13:37:40.760Z,5439.38
2019-04-27T13:38:40.727Z,5400.00
2019-04-27T13:39:40.714Z,3583.13
2019-04-27T13:40:40.695Z,4533.75
2019-04-27T13:41:40.680Z,2475.00
2019-04-27T13:42:40.675Z,2221.88
2019-04-27T13:43:40.648Z,4809.38
2019-04-27T13:44:40.635Z,4848.75
2019-04-27T13:45:40.617Z,3661.88
2019-04-27T13:46:40.604Z,2857.50
2019-04-27T13:47:40.604Z,2694.38
2019-04-27T13:48:40.572Z,2475.00
2019-04-27T13:49:40.558Z,1991.25
2019-04-27T13:50:40.549Z,2165.63
2019-04-27T13:51:40.531Z,1501.88
2019-04-27T13:52:40.515Z,1428.75
2019-04-27T13:53:40.513Z,1355.63
2019-04-27T13:54:40.485Z,1366.88
2019-04-27T13:55:40.471Z,1276.88
2019-04-27T13:56:40.458Z,1170.00
2019-04-27T13:57:50.057Z,1091.25
2019-04-27T13:58:40.451Z,1108.13
2019-04-27T13:59:41.816Z,1068.75
2019-04-27T14:00:41.893Z,1051.88
2019-04-27T14:01:40.387Z,1063.13
2019-04-27T14:02:40.371Z,1040.63
2019-04-27T14:03:40.389Z,1057.50
2019-04-27T14:04:40.341Z,1113.75
2019-04-27T14:05:40.326Z,1209.38
2019-04-27T14:06:41.995Z,1462.50
2019-04-27T14:07:40.811Z,2221.88
2019-04-27T14:08:40.315Z,3555.00
2019-04-27T14:09:40.266Z,3431.25
2019-04-27T14:10:40.250Z,4213.13
2019-04-27T14:11:40.235Z,3661.88
2019-04-27T14:12:40.219Z,3380.63
2019-04-27T14:13:40.204Z,4516.88
2019-04-27T14:14:40.208Z,5641.88
2019-04-27T14:15:40.176Z,6091.88
2019-04-27T14:16:40.164Z,5906.25
2019-04-27T14:17:40.149Z,5416.88
2019-04-27T14:18:40.136Z,5293.13
2019-04-27T14:19:40.145Z,5085.00
2019-04-27T14:20:40.113Z,3892.50
2019-04-27T14:21:40.099Z,4483.13
2019-04-27T14:22:40.087Z,4516.88
2019-04-27T14:23:40.074Z,4522.50
2019-04-27T14:24:40.067Z,4494.38
2019-04-27T14:25:40.065Z,4449.38
2019-04-27T14:26:40.042Z,4764.38
2019-04-27T14:27:40.639Z,4134.38
2019-04-27T14:28:40.017Z,3695.63
2019-04-27T14:29:40.009Z,798.75
2019-04-27T14:30:40.131Z,1282.50
2019-04-27T14:31:39.987Z,1186.88
2019-04-27T14:32:42.162Z,871.88
2019-04-27T14:33:39.966Z,618.75
2019-04-27T14:34:39.953Z,360.00
2019-04-27T14:35:39.958Z,258.75
2019-04-27T14:36:40.557Z,174.38
2019-04-27T14:37:40.336Z,118.13
2019-04-27T14:38:39.908Z,90.00
2019-04-27T14:39:39.895Z,106.88
2019-04-27T14:40:39.925Z,185.63
2019-04-27T14:41:40.635Z,343.13
2019-04-27T14:42:39.857Z,545.63
2019-04-27T14:43:39.844Z,736.88
2019-04-27T14:44:39.832Z,832.50
2019-04-27T14:45:39.847Z,939.38
2019-04-27T14:46:39.826Z,1113.75
2019-04-27T14:47:40.011Z,1873.13
2019-04-27T14:48:39.774Z,3363.75
2019-04-27T14:49:39.758Z,4314.38
2019-04-27T14:50:40.510Z,4719.38
2019-04-27T14:51:48.710Z,1805.63
2019-04-27T14:52:40.932Z,1119.38
2019-04-27T14:53:39.701Z,990.00
2019-04-27T14:54:46.056Z,900.00
2019-04-27T14:55:39.673Z,843.75
2019-04-27T14:56:39.668Z,933.75
2019-04-27T14:57:39.659Z,984.38
2019-04-27T14:58:40.222Z,2086.88
2019-04-27T14:59:39.617Z,922.50
2019-04-27T15:00:39.613Z,821.25
2019-04-27T15:01:40.150Z,703.13
2019-04-27T15:02:39.581Z,585.00
2019-04-27T15:03:39.552Z,478.13
2019-04-27T15:04:42.289Z,410.63
2019-04-27T15:05:39.519Z,393.75
2019-04-27T15:06:39.502Z,405.00
2019-04-27T15:07:39.504Z,427.50
2019-04-27T15:08:42.630Z,478.13
2019-04-27T15:09:39.457Z,562.50
2019-04-27T15:10:39.492Z,675.00
2019-04-27T15:11:39.429Z,714.38
2019-04-27T15:12:39.428Z,708.75
2019-04-27T15:13:43.023Z,697.50
2019-04-27T15:14:39.375Z,691.88
2019-04-27T15:15:39.365Z,697.50
2019-04-27T15:16:42.643Z,680.63
2019-04-27T15:17:40.162Z,866.25
2019-04-27T15:18:43.525Z,2002.50
2019-04-27T15:19:39.292Z,3757.50
2019-04-27T15:20:41.555Z,3481.88
2019-04-27T15:21:43.293Z,3616.88
2019-04-27T15:22:40.371Z,3448.13
2019-04-27T15:23:41.263Z,3706.88
2019-04-27T15:24:41.228Z,3594.38
2019-04-27T15:25:44.983Z,2947.50
2019-04-27T15:26:39.180Z,3296.25
2019-04-27T15:27:42.025Z,3313.13
2019-04-27T15:28:39.172Z,3375.00
2019-04-27T15:29:39.137Z,3245.63
2019-04-27T15:30:42.403Z,3414.38
2019-04-27T15:31:40.854Z,2227.50
2019-04-27T15:32:40.683Z,2767.50
2019-04-27T15:33:39.086Z,3442.50
2019-04-27T15:34:40.045Z,2210.63
2019-04-27T15:35:40.483Z,3065.63
2019-04-27T15:36:39.048Z,1378.13
2019-04-27T15:37:39.345Z,1006.88
2019-04-27T15:38:39.044Z,1175.63
2019-04-27T15:39:39.547Z,826.88
2019-04-27T15:40:43.791Z,641.25
2019-04-27T15:41:38.990Z,461.25
2019-04-27T15:42:41.569Z,303.75
2019-04-27T15:43:38.965Z,202.50
2019-04-27T15:44:41.080Z,135.00
2019-04-27T15:45:38.974Z,95.63
2019-04-27T15:46:39.126Z,67.50
2019-04-27T15:47:42.551Z,56.25
2019-04-27T15:48:38.961Z,50.63
2019-04-27T15:49:45.009Z,50.63
2019-04-27T15:50:38.872Z,45.00
2019-04-27T15:51:38.856Z,39.38
2019-04-27T15:52:38.849Z,39.38
2019-04-27T15:53:41.452Z,45.00
2019-04-27T15:54:38.832Z,50.63
2019-04-27T15:55:39.575Z,61.88
2019-04-27T15:56:38.780Z,73.13
2019-04-27T15:57:42.528Z,84.38
2019-04-27T15:58:38.747Z,101.25
2019-04-27T15:59:40.950Z,123.75
2019-04-27T16:00:38.729Z,151.88
2019-04-27T16:01:39.603Z,180.00
2019-04-27T16:02:38.683Z,196.88
2019-04-27T16:03:39.048Z,219.38
2019-04-27T16:04:39.902Z,253.13
2019-04-27T16:05:38.642Z,286.88
2019-04-27T16:06:38.735Z,337.50
2019-04-27T16:07:38.907Z,376.88
2019-04-27T16:08:45.092Z,393.75
2019-04-27T16:09:38.762Z,388.13
2019-04-27T16:10:40.279Z,382.50
2019-04-27T16:11:38.521Z,371.25
2019-04-27T16:12:47.066Z,360.00
2019-04-27T16:13:38.482Z,326.25
2019-04-27T16:14:42.808Z,298.13
2019-04-27T16:15:38.508Z,275.63
2019-04-27T16:16:40.300Z,270.00
2019-04-27T16:17:42.433Z,270.00
2019-04-27T16:18:38.854Z,270.00
2019-04-27T16:19:42.656Z,275.63
2019-04-27T16:20:38.354Z,286.88
2019-04-27T16:21:39.833Z,303.75
2019-04-27T16:22:39.068Z,326.25
2019-04-27T16:23:42.890Z,348.75
2019-04-27T16:24:39.143Z,371.25
2019-04-27T16:25:47.441Z,382.50
2019-04-27T16:26:38.721Z,399.38
2019-04-27T16:27:38.498Z,410.63
2019-04-27T16:28:38.206Z,410.63
2019-04-27T16:29:38.988Z,410.63
2019-04-27T16:30:39.176Z,399.38
2019-04-27T16:31:38.571Z,376.88
2019-04-27T16:32:40.394Z,376.88
2019-04-27T16:33:39.105Z,376.88
2019-04-27T16:34:41.200Z,376.88
2019-04-27T16:35:38.755Z,382.50
2019-04-27T16:36:43.533Z,376.88
2019-04-27T16:37:38.793Z,376.88
2019-04-27T16:38:38.778Z,371.25
2019-04-27T16:39:39.671Z,388.13
2019-04-27T16:40:38.939Z,427.50
2019-04-27T16:41:38.584Z,450.00
2019-04-27T16:42:38.416Z,472.50
2019-04-27T16:43:38.567Z,489.38
2019-04-27T16:44:40.054Z,489.38
2019-04-27T16:45:38.837Z,483.75
2019-04-27T16:46:41.188Z,444.38
2019-04-27T16:47:38.396Z,382.50
2019-04-27T16:48:38.985Z,303.75
2019-04-27T16:49:38.169Z,253.13
2019-04-27T16:50:39.023Z,236.25
2019-04-27T16:51:40.193Z,236.25
2019-04-27T16:52:39.016Z,213.75
2019-04-27T16:53:41.010Z,196.88
2019-04-27T16:54:37.793Z,180.00
2019-04-27T16:55:38.739Z,151.88
2019-04-27T16:56:38.091Z,118.13
2019-04-27T16:57:40.073Z,112.50
2019-04-27T16:58:39.415Z,118.13
2019-04-27T16:59:44.189Z,151.88
2019-04-27T17:00:38.794Z,213.75
2019-04-27T17:01:41.761Z,298.13
2019-04-27T17:02:38.025Z,388.13
2019-04-27T17:03:38.940Z,433.13
2019-04-27T17:04:38.759Z,410.63
2019-04-27T17:05:37.979Z,354.38
2019-04-27T17:06:40.827Z,309.38
2019-04-27T17:07:37.893Z,286.88
2019-04-27T17:08:39.400Z,292.50
2019-04-27T17:09:42.137Z,315.00
2019-04-27T17:10:38.955Z,320.63
2019-04-27T17:11:38.794Z,320.63
2019-04-27T17:12:41.017Z,331.88
2019-04-27T17:13:38.959Z,331.88
2019-04-27T17:14:38.711Z,354.38
2019-04-27T17:15:39.704Z,365.63
2019-04-27T17:16:38.992Z,371.25
2019-04-27T17:17:38.637Z,348.75
2019-04-27T17:18:38.550Z,320.63
2019-04-27T17:19:42.528Z,298.13
2019-04-27T17:20:38.304Z,281.25
2019-04-27T17:21:38.688Z,264.38
2019-04-27T17:22:38.462Z,247.50
2019-04-27T17:23:38.775Z,225.00
2019-04-27T17:24:44.066Z,208.13
2019-04-27T17:25:39.733Z,191.25
2019-04-27T17:26:41.881Z,185.63
2019-04-27T17:27:38.281Z,180.00
2019-04-27T17:28:37.905Z,174.38
2019-04-27T17:29:38.650Z,174.38
2019-04-27T17:30:39.901Z,174.38
2019-04-27T17:31:38.161Z,168.75
2019-04-27T17:32:38.850Z,168.75
2019-04-27T17:33:38.127Z,168.75
2019-04-27T17:34:36.956Z,174.38
2019-04-27T17:35:41.280Z,180.00
2019-04-27T17:36:38.705Z,461.25
2019-04-27T17:37:38.326Z,708.75
2019-04-27T17:38:38.390Z,483.75
2019-04-27T17:39:38.567Z,545.63
2019-04-27T17:40:36.826Z,376.88
2019-04-27T17:41:36.812Z,506.25
2019-04-27T17:42:36.790Z,405.00
2019-04-27T17:43:37.392Z,348.75
2019-04-27T17:44:36.750Z,354.38
2019-04-27T17:45:38.060Z,264.38
2019-04-27T17:46:38.449Z,253.13
2019-04-27T17:47:38.735Z,253.13
2019-04-27T17:48:38.059Z,241.88
2019-04-27T17:49:38.171Z,236.25
2019-04-27T17:50:38.515Z,230.63
2019-04-27T17:51:42.875Z,213.75
2019-04-27T17:52:37.818Z,202.50
2019-04-27T17:53:36.594Z,180.00
2019-04-27T17:54:40.277Z,157.50
2019-04-27T17:55:36.583Z,140.63
2019-04-27T17:56:47.693Z,123.75
2019-04-27T17:57:38.766Z,106.88
2019-04-27T17:58:39.738Z,95.63
2019-04-27T17:59:37.448Z,84.38
2019-04-27T18:00:42.909Z,78.75
2019-04-27T18:01:36.443Z,67.50
2019-04-27T18:02:39.016Z,61.88
2019-04-27T18:03:36.395Z,56.25
2019-04-27T18:04:37.738Z,50.63
2019-04-27T18:05:36.352Z,45.00
2019-04-27T18:06:36.348Z,50.63
2019-04-27T18:07:40.325Z,50.63
2019-04-27T18:08:40.087Z,45.00
2019-04-27T18:09:39.947Z,39.38
2019-04-27T18:10:36.255Z,33.75
2019-04-27T18:11:37.335Z,33.75
2019-04-27T18:12:36.219Z,28.13
2019-04-27T18:13:36.198Z,28.13
2019-04-27T18:14:39.475Z,28.13
2019-04-27T18:15:36.159Z,33.75
2019-04-27T18:16:37.947Z,33.75
2019-04-27T18:17:36.120Z,33.75
2019-04-27T18:18:37.994Z,33.75
2019-04-27T18:19:36.080Z,39.38
2019-04-27T18:20:37.847Z,39.38
2019-04-27T18:21:36.040Z,39.38
2019-04-27T18:22:36.652Z,39.38
2019-04-27T18:23:36.003Z,45.00
2019-04-27T18:24:37.884Z,39.38
2019-04-27T18:25:40.439Z,33.75
2019-04-27T18:26:47.055Z,28.13
2019-04-27T18:27:37.706Z,28.13
2019-04-27T18:28:35.909Z,28.13
2019-04-27T18:29:35.885Z,28.13
2019-04-27T18:30:38.673Z,28.13
2019-04-27T18:31:35.867Z,28.13
2019-04-27T18:32:35.827Z,22.50
2019-04-27T18:33:37.271Z,22.50
2019-04-27T18:34:35.785Z,22.50
2019-04-27T18:35:35.768Z,22.50
2019-04-27T18:36:37.864Z,22.50
2019-04-27T18:37:35.729Z,22.50
2019-04-27T18:38:37.402Z,22.50
2019-04-27T18:39:35.689Z,22.50
2019-04-27T18:40:35.672Z,22.50
2019-04-27T18:41:35.649Z,22.50
2019-04-27T18:42:35.630Z,22.50
2019-04-27T18:43:35.626Z,16.88
2019-04-27T18:44:35.591Z,16.88
2019-04-27T18:45:39.682Z,16.88
2019-04-27T18:46:35.550Z,16.88
2019-04-27T18:47:36.893Z,11.25
2019-04-27T18:48:35.531Z,11.25
2019-04-27T18:49:35.490Z,11.25
2019-04-27T18:50:35.471Z,5.63
2019-04-27T18:51:35.451Z,5.63
2019-04-27T18:52:39.412Z,5.63
2019-04-27T18:53:35.413Z,5.63
2019-04-27T18:54:38.244Z,0.00
2019-04-27T18:55:35.374Z,0.00
2019-04-27T18:56:38.417Z,0.00
2019-04-27T18:57:35.334Z,0.00
2019-04-27T18:58:35.312Z,0.00
2019-04-27T18:59:35.305Z,0.00
2019-04-27T19:00:35.280Z,0.00
2019-04-27T19:01:35.261Z,0.00
2019-04-27T19:02:35.233Z,0.00
2019-04-27T19:03:35.212Z,0.00
2019-04-27T19:04:35.213Z,0.00
2019-04-27T19:05:40.267Z,0.00
2019-04-27T19:06:35.151Z,0.00
2019-04-27T19:07:35.131Z,0.00
2019-04-27T19:08:35.112Z,0.00
2019-04-27T19:09:35.100Z,0.00
2019-04-27T19:10:35.088Z,0.00
2019-04-27T19:11:35.056Z,0.00
2019-04-27T19:12:35.062Z,0.00
2019-04-27T19:13:35.015Z,0.00
2019-04-27T19:14:34.992Z,0.00
2019-04-27T19:15:35.000Z,0.00
2019-04-27T19:16:34.953Z,0.00
2019-04-27T19:17:34.932Z,0.00
2019-04-27T19:18:34.911Z,0.00
2019-04-27T19:19:34.894Z,0.00
2019-04-27T19:20:34.890Z,0.00
2019-04-27T19:21:34.851Z,0.00
2019-04-27T19:22:34.832Z,0.00
2019-04-27T19:23:34.814Z,0.00
2019-04-27T19:24:34.791Z,0.00
2019-04-27T19:25:34.772Z,0.00
2019-04-27T19:26:34.766Z,0.00
2019-04-27T19:27:34.731Z,0.00
2019-04-27T19:28:34.711Z,0.00
2019-04-27T19:29:34.692Z,0.00
2019-04-27T19:30:34.669Z,0.00
2019-04-27T19:31:34.666Z,0.00
2019-04-27T19:32:34.629Z,0.00
2019-04-27T19:33:34.610Z,0.00
2019-04-27T19:34:34.593Z,0.00
2019-04-27T19:35:34.571Z,0.00
2019-04-27T19:36:34.586Z,0.00
2019-04-27T19:37:34.530Z,0.00
2019-04-27T19:38:34.507Z,0.00
2019-04-27T19:39:34.491Z,0.00
2019-04-27T19:40:34.469Z,0.00
2019-04-27T19:41:34.447Z,0.00
2019-04-27T19:42:34.443Z,0.00
2019-04-27T19:43:34.412Z,0.00
2019-04-27T19:44:34.389Z,0.00
2019-04-27T19:45:34.374Z,0.00
2019-04-27T19:46:34.347Z,0.00
2019-04-27T19:47:34.344Z,0.00
2019-04-27T19:48:34.322Z,0.00
2019-04-27T19:49:34.285Z,0.00
2019-04-27T19:50:34.265Z,0.00
2019-04-27T19:51:34.251Z,0.00
2019-04-27T19:52:34.243Z,0.00
2019-04-27T19:53:34.211Z,0.00
2019-04-27T19:54:34.184Z,0.00
2019-04-27T19:55:34.167Z,0.00
2019-04-27T19:56:34.172Z,0.00
